Time;durP1;ratioP1;P1;durP2;ratioP2;P2;SDS_P1;SDS_P2;PMS_P1;PMS_P2;Temp;Humidity;BMP_temperature;BMP_pressure;BME280_temperature;BME280_humidity;BME280_pressure;Samples;Min_cycle;Max_cycle;Signal;HPM_P1;HPM_P2
2021/12/22 00:01:48;;;;;;;38.08;21.58;;;-5.50;98.00;;;;;;5094769;28;20024;-78
2021/12/22 00:04:13;;;;;;;40.55;21.25;;;-5.50;98.00;;;;;;5089434;28;20028;-78
2021/12/22 00:06:39;;;;;;;46.75;25.70;;;-5.60;98.00;;;;;;5093091;28;20035;-78
2021/12/22 00:09:06;;;;;;;43.28;24.65;;;-5.70;98.00;;;;;;5083100;28;20056;-78
2021/12/22 00:11:31;;;;;;;44.40;24.77;;;-5.90;98.00;;;;;;5092279;28;20032;-78
2021/12/22 00:13:57;;;;;;;46.70;21.85;;;-6.10;98.00;;;;;;5079943;28;20032;-78
2021/12/22 00:16:23;;;;;;;41.70;21.23;;;-6.10;98.00;;;;;;5095353;28;20333;-78
2021/12/22 00:18:49;;;;;;;41.55;21.25;;;-6.20;98.00;;;;;;5090112;28;20028;-78
2021/12/22 00:21:14;;;;;;;39.33;22.73;;;-6.30;98.00;;;;;;5089663;28;20047;-78
2021/12/22 00:23:40;;;;;;;38.97;21.80;;;-6.40;98.00;;;;;;5092201;28;20125;-78
2021/12/22 00:26:06;;;;;;;42.78;24.02;;;-6.20;98.00;;;;;;5093616;28;20035;-78
2021/12/22 00:28:32;;;;;;;37.42;21.67;;;-6.10;98.00;;;;;;5091284;28;20107;-78
2021/12/22 00:30:59;;;;;;;43.60;22.88;;;-6.20;98.00;;;;;;5088811;28;20028;-78
2021/12/22 00:33:27;;;;;;;47.30;25.33;;;-6.10;98.00;;;;;;5089057;28;20442;-78
2021/12/22 00:35:53;;;;;;;39.78;22.75;;;-6.00;98.00;;;;;;5093910;28;20024;-78
2021/12/22 00:38:21;;;;;;;42.58;23.10;;;-6.00;98.00;;;;;;5081178;28;20043;-78
2021/12/22 00:40:48;;;;;;;44.20;24.15;;;-5.90;98.00;;;;;;5098278;28;20436;-78
2021/12/22 00:43:15;;;;;;;44.00;24.88;;;-5.80;98.00;;;;;;5096985;28;20059;-78
2021/12/22 00:45:42;;;;;;;42.08;23.17;;;-6.00;98.00;;;;;;5093203;28;20043;-78
2021/12/22 00:48:10;;;;;;;36.15;20.55;;;-6.10;98.00;;;;;;5101111;28;20094;-78
2021/12/22 00:50:38;;;;;;;39.63;22.55;;;-6.20;98.00;;;;;;5094896;28;20043;-79
2021/12/22 00:53:05;;;;;;;42.78;24.58;;;-6.20;98.00;;;;;;5093315;28;20038;-78
2021/12/22 00:55:31;;;;;;;39.15;22.27;;;-6.10;98.00;;;;;;5091253;28;20451;-78
2021/12/22 00:57:56;;;;;;;37.80;21.88;;;-6.10;98.00;;;;;;5106561;28;20098;-78
2021/12/22 01:00:28;;;;;;;41.40;23.08;;;-6.20;98.00;;;;;;5089298;28;20103;-78
2021/12/22 01:02:54;;;;;;;42.97;24.00;;;-6.20;98.00;;;;;;5090808;28;20028;-78
2021/12/22 01:05:20;;;;;;;44.90;24.85;;;-6.20;98.00;;;;;;5091491;28;20336;-77
2021/12/22 01:07:48;;;;;;;42.88;23.40;;;-6.30;98.00;;;;;;5087938;28;20107;-78
2021/12/22 01:10:14;;;;;;;39.05;22.02;;;-6.40;98.00;;;;;;5082431;28;20028;-77
2021/12/22 01:12:40;;;;;;;41.20;22.30;;;-6.60;98.00;;;;;;5084972;28;20040;-78
2021/12/22 01:15:08;;;;;;;39.53;22.20;;;-6.60;98.00;;;;;;5089775;28;20025;-78
2021/12/22 01:17:40;;;;;;;43.42;23.10;;;-6.70;98.00;;;;;;5090202;28;20036;-78
2021/12/22 01:20:15;;;;;;;39.03;21.38;;;-6.70;98.00;;;;;;5089616;28;20021;-78
2021/12/22 01:25:08;;;;;;;48.53;24.08;;;-6.60;98.00;;;;;;5079357;28;20025;-78
2021/12/22 01:27:39;;;;;;;44.22;23.80;;;-6.70;98.00;;;;;;5088286;28;20443;-78
2021/12/22 01:30:11;;;;;;;38.05;22.02;;;-6.70;98.00;;;;;;5082075;28;20020;-78
2021/12/22 01:32:38;;;;;;;41.25;21.80;;;-6.70;98.00;;;;;;5096349;28;20024;-78
2021/12/22 01:35:07;;;;;;;40.25;22.05;;;-6.60;98.00;;;;;;5084742;28;20444;-77
2021/12/22 01:37:33;;;;;;;42.35;22.90;;;-6.50;98.00;;;;;;5083180;28;20032;-78
2021/12/22 01:40:01;;;;;;;51.88;26.15;;;-6.50;98.00;;;;;;5094151;28;20030;-77
2021/12/22 01:42:27;;;;;;;48.45;24.95;;;-6.50;98.00;;;;;;5098177;28;20024;-78
2021/12/22 01:50:28;;;;;;;45.65;24.88;;;-6.40;98.00;;;;;;5083815;28;20040;-77
2021/12/22 01:52:54;;;;;;;43.90;25.13;;;-6.30;98.00;;;;;;5090467;28;20370;-76
2021/12/22 01:55:33;;;;;;;39.72;22.80;;;-6.30;98.00;;;;;;5096788;28;20024;-76
2021/12/22 01:58:00;;;;;;;40.83;22.60;;;-6.40;98.00;;;;;;5096800;28;20424;-77
2021/12/22 02:00:26;;;;;;;45.17;23.95;;;-6.40;98.00;;;;;;5092941;28;20028;-77
2021/12/22 02:02:52;;;;;;;41.47;22.10;;;-6.40;98.00;;;;;;5092155;28;20043;-76
2021/12/22 02:05:20;;;;;;;36.05;21.98;;;-6.40;98.00;;;;;;5099011;28;20417;-77
2021/12/22 02:07:48;;;;;;;51.38;26.02;;;-6.50;98.00;;;;;;5080436;28;20112;-77
2021/12/22 02:12:50;;;;;;;38.03;21.75;;;-6.60;98.00;;;;;;5088281;28;20025;-76
2021/12/22 02:15:16;;;;;;;44.38;24.30;;;-6.60;98.00;;;;;;5090879;28;20020;-77
2021/12/22 02:17:42;;;;;;;44.13;22.83;;;-6.40;98.00;;;;;;5094007;28;20089;-78
2021/12/22 02:20:09;;;;;;;44.72;24.65;;;-6.50;98.00;;;;;;5093707;28;20032;-77
2021/12/22 02:22:36;;;;;;;46.10;24.88;;;-6.70;98.00;;;;;;5086711;28;20024;-77
2021/12/22 02:25:11;;;;;;;46.20;24.70;;;-6.70;98.00;;;;;;5098203;28;20420;-77
2021/12/22 02:27:43;;;;;;;47.35;24.15;;;-6.70;98.00;;;;;;5092768;28;20093;-78
2021/12/22 02:30:16;;;;;;;45.28;25.05;;;-6.70;98.00;;;;;;5096526;28;20020;-76
2021/12/22 02:33:08;;;;;;;44.92;26.50;;;-6.60;98.00;;;;;;5094249;28;20024;-77
2021/12/22 02:35:42;;;;;;;50.20;26.50;;;-6.40;98.00;;;;;;5096556;28;20028;-76
2021/12/22 02:38:14;;;;;;;53.55;27.42;;;-6.30;98.00;;;;;;5090593;28;20354;-77
2021/12/22 02:40:42;;;;;;;47.67;25.33;;;-6.40;98.00;;;;;;5090682;28;20028;-77
2021/12/22 02:43:08;;;;;;;50.85;25.85;;;-6.50;98.00;;;;;;5098477;28;20028;-77
2021/12/22 02:45:34;;;;;;;48.50;25.05;;;-6.60;98.00;;;;;;5078248;28;20368;-77
2021/12/22 02:48:00;;;;;;;50.97;27.25;;;-6.70;98.00;;;;;;5092702;28;20035;-76
2021/12/22 02:50:26;;;;;;;54.00;28.15;;;-6.60;98.00;;;;;;5100115;28;20031;-77
2021/12/22 02:55:21;;;;;;;48.13;25.40;;;-6.70;98.00;;;;;;5096561;28;20031;-76
2021/12/22 02:57:49;;;;;;;44.92;24.00;;;-6.90;98.00;;;;;;5096133;28;20063;-76
2021/12/22 03:03:33;;;;;;;48.17;25.00;;;-7.10;98.00;;;;;;5094163;28;20412;-77
2021/12/22 03:05:42;;;;;;;55.88;28.35;;;-7.00;98.00;;;;;;5095355;28;20115;-76
2021/12/22 03:08:08;;;;;;;44.00;23.50;;;-6.90;98.00;;;;;;5094557;28;20115;-77
2021/12/22 03:10:35;;;;;;;48.40;25.52;;;-7.00;98.00;;;;;;5080547;28;20032;-76
2021/12/22 03:13:04;;;;;;;49.55;26.83;;;-7.20;98.00;;;;;;5092126;28;20528;-77
2021/12/22 03:15:32;;;;;;;51.03;26.38;;;-7.30;98.00;;;;;;5100008;28;20085;-77
2021/12/22 03:17:58;;;;;;;48.10;25.42;;;-7.40;98.00;;;;;;5095580;28;20024;-76
2021/12/22 03:20:24;;;;;;;51.17;26.00;;;-7.40;98.00;;;;;;5095760;28;20020;-76
2021/12/22 03:22:51;;;;;;;49.63;24.75;;;-7.40;98.00;;;;;;5090810;28;20350;-77
2021/12/22 03:25:17;;;;;;;48.80;25.38;;;-7.50;98.00;;;;;;5084056;28;20125;-77
2021/12/22 03:27:46;;;;;;;49.10;25.30;;;-7.60;98.00;;;;;;5082931;28;20016;-76
2021/12/22 03:30:14;;;;;;;51.65;25.13;;;-7.60;98.00;;;;;;5094553;28;20321;-76
2021/12/22 03:32:40;;;;;;;47.72;25.63;;;-7.50;98.00;;;;;;5095107;28;20325;-76
2021/12/22 03:35:07;;;;;;;55.78;27.85;;;-7.30;98.00;;;;;;5097165;28;20318;-76
2021/12/22 03:37:32;;;;;;;54.17;26.73;;;-7.20;97.80;;;;;;5096123;28;20020;-76
2021/12/22 03:39:58;;;;;;;52.70;26.52;;;-7.00;97.60;;;;;;5101407;28;20412;-77
2021/12/22 03:42:24;;;;;;;48.78;26.02;;;-6.90;98.00;;;;;;5094371;28;20119;-75
2021/12/22 03:44:50;;;;;;;52.95;26.50;;;-7.00;98.00;;;;;;5088437;28;20037;-76
2021/12/22 03:47:15;;;;;;;56.35;28.27;;;-7.10;98.00;;;;;;5077868;28;20111;-76
2021/12/22 03:49:41;;;;;;;52.65;27.30;;;-7.10;97.90;;;;;;5102516;28;20120;-77
2021/12/22 03:52:07;;;;;;;52.03;25.98;;;-7.00;98.00;;;;;;5090014;28;20487;-76
2021/12/22 03:54:33;;;;;;;55.22;27.83;;;-7.10;98.00;;;;;;5089614;28;20107;-76
2021/12/22 03:56:59;;;;;;;49.45;25.02;;;-7.30;98.00;;;;;;5091900;28;20028;-77
2021/12/22 03:59:24;;;;;;;47.10;24.17;;;-7.30;98.00;;;;;;5095136;28;20312;-76
2021/12/22 04:01:51;;;;;;;49.50;25.50;;;-7.30;98.00;;;;;;5094228;28;20032;-76
2021/12/22 04:04:19;;;;;;;50.35;26.60;;;-7.30;98.00;;;;;;5094640;28;20036;-76
2021/12/22 04:06:49;;;;;;;46.72;24.98;;;-7.30;98.00;;;;;;5096252;28;20102;-75
2021/12/22 04:09:16;;;;;;;48.83;25.55;;;-7.40;98.00;;;;;;5087104;28;20127;-76
2021/12/22 04:11:43;;;;;;;45.20;23.98;;;-7.40;98.00;;;;;;5093976;28;20032;-76
2021/12/22 04:14:10;;;;;;;49.63;25.27;;;-7.40;98.00;;;;;;5091027;28;20048;-76
2021/12/22 04:16:37;;;;;;;47.78;25.85;;;-7.30;98.00;;;;;;5093849;28;20374;-77
2021/12/22 04:19:03;;;;;;;61.60;28.52;;;-7.40;98.00;;;;;;5096200;28;20024;-76
2021/12/22 04:21:30;;;;;;;55.75;25.60;;;-7.60;98.00;;;;;;5097450;28;20102;-76
2021/12/22 04:23:56;;;;;;;53.60;28.02;;;-7.60;98.00;;;;;;5101982;28;20034;-76
2021/12/22 04:26:21;;;;;;;47.03;25.50;;;-7.60;98.00;;;;;;5094478;28;20411;-76
2021/12/22 04:28:47;;;;;;;48.67;26.90;;;-7.60;98.00;;;;;;5092171;28;20167;-76
2021/12/22 04:31:13;;;;;;;46.65;25.30;;;-7.60;98.00;;;;;;5088335;28;20032;-77
2021/12/22 04:33:39;;;;;;;50.25;26.73;;;-7.60;98.00;;;;;;5093317;28;20457;-76
2021/12/22 04:36:05;;;;;;;48.88;26.55;;;-7.60;98.00;;;;;;5092225;28;20357;-73
2021/12/22 04:38:30;;;;;;;55.65;26.30;;;-7.60;98.00;;;;;;5083778;28;20035;-76
2021/12/22 04:40:56;;;;;;;46.95;23.42;;;-7.60;98.00;;;;;;5092406;28;20413;-74
2021/12/22 04:43:22;;;;;;;50.75;25.80;;;-7.70;98.00;;;;;;5100154;28;20028;-74
2021/12/22 04:45:48;;;;;;;49.25;25.33;;;-7.70;98.00;;;;;;5095567;28;20089;-75
2021/12/22 04:48:13;;;;;;;59.95;29.15;;;-7.70;98.00;;;;;;5093130;28;20028;-74
2021/12/22 04:50:39;;;;;;;59.40;28.23;;;-7.60;98.00;;;;;;5085679;28;20028;-75
2021/12/22 04:53:21;;;;;;;75.90;34.60;;;-7.50;98.00;;;;;;5094248;28;20427;-76
2021/12/22 04:55:47;;;;;;;150.10;59.67;;;-7.70;98.00;;;;;;5097870;28;20039;-76
2021/12/22 04:58:12;;;;;;;57.22;30.20;;;-7.90;98.00;;;;;;5097395;28;20020;-75
2021/12/22 05:00:40;;;;;;;42.67;24.40;;;-7.90;98.00;;;;;;5098660;28;20432;-76
2021/12/22 05:03:06;;;;;;;53.25;27.48;;;-7.90;98.00;;;;;;5095868;28;20024;-75
2021/12/22 05:05:32;;;;;;;50.17;27.38;;;-7.80;98.00;;;;;;5104678;28;20408;-76
2021/12/22 05:07:58;;;;;;;72.78;33.10;;;-7.70;98.00;;;;;;5096624;28;20085;-75
2021/12/22 05:10:25;;;;;;;89.15;41.00;;;-7.60;98.00;;;;;;5090422;28;20440;-75
2021/12/22 05:12:51;;;;;;;58.30;29.13;;;-7.70;98.00;;;;;;5100511;28;20020;-76
2021/12/22 05:15:20;;;;;;;62.50;30.60;;;-7.80;98.00;;;;;;5100498;28;20441;-74
2021/12/22 05:20:14;;;;;;;64.63;31.23;;;-7.70;98.00;;;;;;5098602;28;20032;-75
2021/12/22 05:22:40;;;;;;;61.15;30.40;;;-7.60;98.00;;;;;;5096139;28;20085;-75
2021/12/22 05:25:09;;;;;;;80.68;38.25;;;-7.70;98.00;;;;;;5096184;28;20017;-75
2021/12/22 05:27:35;;;;;;;91.40;42.83;;;-7.80;98.00;;;;;;5095360;28;20444;-74
2021/12/22 05:30:01;;;;;;;137.77;61.88;;;-7.90;98.00;;;;;;5089849;28;20020;-76
2021/12/22 05:32:31;;;;;;;111.03;53.10;;;-8.00;98.00;;;;;;5095235;28;20032;-75
2021/12/22 05:35:02;;;;;;;112.82;49.45;;;-8.00;98.00;;;;;;5096176;28;20036;-75
2021/12/22 05:37:27;;;;;;;132.82;71.07;;;-7.90;98.00;;;;;;5092092;28;20027;-74
2021/12/22 05:39:56;;;;;;;105.50;52.13;;;-7.90;98.00;;;;;;5096747;28;20409;-76
2021/12/22 05:42:26;;;;;;;77.93;38.88;;;-7.90;98.00;;;;;;5095587;28;20020;-75
2021/12/22 05:44:52;;;;;;;64.57;33.22;;;-8.00;98.00;;;;;;5094750;28;20081;-75
2021/12/22 05:47:17;;;;;;;63.88;32.67;;;-7.90;98.00;;;;;;5095848;28;20028;-74
2021/12/22 05:49:44;;;;;;;52.78;27.77;;;-8.00;98.00;;;;;;5096056;28;20032;-75
2021/12/22 05:52:10;;;;;;;58.28;30.40;;;-8.00;98.00;;;;;;5097217;28;20451;-75
2021/12/22 05:54:36;;;;;;;54.63;28.10;;;-8.00;98.00;;;;;;5095446;28;20040;-75
2021/12/22 05:57:02;;;;;;;52.70;26.48;;;-7.90;98.00;;;;;;5096233;28;20332;-75
2021/12/22 05:59:28;;;;;;;72.68;34.15;;;-7.80;98.00;;;;;;5096266;28;20035;-75
2021/12/22 06:01:53;;;;;;;47.05;24.23;;;-7.70;98.00;;;;;;5097937;28;20080;-75
2021/12/22 06:04:19;;;;;;;53.83;28.85;;;-7.80;98.00;;;;;;5095934;28;20036;-75
2021/12/22 06:06:45;;;;;;;52.70;28.20;;;-7.80;98.00;;;;;;5097235;28;20024;-74
2021/12/22 06:09:10;;;;;;;57.00;29.52;;;-7.80;98.00;;;;;;5090001;28;20043;-75
2021/12/22 06:11:36;;;;;;;56.45;29.27;;;-7.80;98.00;;;;;;5096757;28;20424;-75
2021/12/22 06:14:02;;;;;;;53.47;28.58;;;-7.90;98.00;;;;;;5097352;28;20122;-75
2021/12/22 06:16:30;;;;;;;64.70;34.70;;;-8.00;98.00;;;;;;5103174;28;20159;-75
2021/12/22 06:18:58;;;;;;;57.13;30.80;;;-7.90;98.00;;;;;;5091951;28;20017;-75
2021/12/22 06:21:24;;;;;;;61.60;32.53;;;-7.80;98.00;;;;;;5094209;28;20430;-74
2021/12/22 06:23:50;;;;;;;57.60;29.98;;;-7.60;98.00;;;;;;5096261;28;20056;-75
2021/12/22 06:26:17;;;;;;;138.02;55.05;;;-7.50;98.00;;;;;;5098179;28;20103;-74
2021/12/22 06:28:43;;;;;;;106.30;45.90;;;-7.50;98.00;;;;;;5079492;28;20153;-75
2021/12/22 06:31:09;;;;;;;108.78;45.58;;;-7.60;98.00;;;;;;5095857;28;20457;-75
2021/12/22 06:33:35;;;;;;;80.78;36.38;;;-7.80;98.00;;;;;;5092059;28;20435;-75
2021/12/22 06:36:01;;;;;;;78.55;38.70;;;-7.90;98.00;;;;;;5092319;28;20031;-75
2021/12/22 06:38:27;;;;;;;81.35;35.95;;;-7.80;98.00;;;;;;5087557;28;20425;-75
2021/12/22 06:40:52;;;;;;;70.80;32.10;;;-7.80;98.00;;;;;;5090579;28;20028;-75
2021/12/22 06:43:18;;;;;;;75.05;35.03;;;-7.80;98.00;;;;;;5096564;28;20032;-75
2021/12/22 06:45:44;;;;;;;54.53;26.70;;;-7.80;98.00;;;;;;5094626;28;20052;-75
2021/12/22 06:48:10;;;;;;;54.83;27.65;;;-7.90;98.00;;;;;;5083433;28;20035;-75
2021/12/22 06:50:35;;;;;;;61.75;29.00;;;-7.90;98.00;;;;;;5091477;28;20032;-75
2021/12/22 06:53:01;;;;;;;52.22;27.73;;;-7.90;98.00;;;;;;5095764;28;20392;-76
2021/12/22 06:55:27;;;;;;;44.30;24.30;;;-8.00;98.00;;;;;;5090243;28;20016;-75
2021/12/22 06:57:53;;;;;;;53.78;27.25;;;-8.00;98.00;;;;;;5096187;28;20095;-75
2021/12/22 07:00:22;;;;;;;75.15;33.60;;;-8.10;98.00;;;;;;5096400;28;20012;-75
2021/12/22 07:02:48;;;;;;;65.47;32.53;;;-8.10;98.00;;;;;;5093233;28;20114;-76
2021/12/22 07:05:14;;;;;;;63.17;31.30;;;-8.00;98.00;;;;;;5095587;28;20036;-75
2021/12/22 07:07:40;;;;;;;56.28;29.92;;;-8.00;98.00;;;;;;5095284;28;20032;-75
2021/12/22 07:10:08;;;;;;;58.10;28.70;;;-8.00;98.00;;;;;;5096896;28;20047;-76
2021/12/22 07:12:35;;;;;;;49.90;26.65;;;-8.00;98.00;;;;;;5098917;28;20044;-76
2021/12/22 07:15:05;;;;;;;57.17;27.00;;;-7.90;98.00;;;;;;5095359;28;20047;-75
2021/12/22 07:17:31;;;;;;;53.60;27.10;;;-7.70;98.00;;;;;;5098760;28;20433;-75
2021/12/22 07:19:56;;;;;;;63.75;29.70;;;-7.80;98.00;;;;;;5093731;28;20020;-74
2021/12/22 07:22:22;;;;;;;59.72;29.35;;;-7.80;98.00;;;;;;5095268;28;20039;-75
2021/12/22 07:24:48;;;;;;;79.75;40.70;;;-8.00;98.00;;;;;;5096098;28;20100;-75
2021/12/22 07:27:13;;;;;;;66.95;34.08;;;-8.10;98.00;;;;;;5096416;28;20027;-74
2021/12/22 07:29:41;;;;;;;90.10;42.63;;;-8.00;98.00;;;;;;5093745;28;20379;-75
2021/12/22 07:32:07;;;;;;;62.40;32.83;;;-8.00;98.00;;;;;;5095066;28;20028;-73
2021/12/22 07:34:41;;;;;;;65.55;31.40;;;-8.00;98.00;;;;;;5094746;28;20016;-73
2021/12/22 07:37:22;;;;;;;75.97;36.92;;;-7.90;98.00;;;;;;5093988;28;20034;-73
2021/12/22 07:39:48;;;;;;;86.07;40.90;;;-7.80;98.00;;;;;;5095078;28;20024;-73
2021/12/22 07:42:14;;;;;;;116.18;55.28;;;-7.80;98.00;;;;;;5094550;28;20059;-73
2021/12/22 07:44:43;;;;;;;123.93;58.85;;;-7.80;98.00;;;;;;5097132;28;20059;-73
2021/12/22 07:47:08;;;;;;;203.43;89.68;;;-7.70;98.00;;;;;;5095908;28;20366;-74
2021/12/22 07:49:34;;;;;;;111.88;51.22;;;-7.70;98.00;;;;;;5082403;28;20028;-75
2021/12/22 07:52:00;;;;;;;134.73;67.63;;;-7.70;98.00;;;;;;5090491;28;20031;-75
2021/12/22 07:54:26;;;;;;;110.90;57.33;;;-7.60;98.00;;;;;;5093566;28;20066;-75
2021/12/22 07:56:51;;;;;;;97.10;51.30;;;-7.60;98.00;;;;;;5094067;28;20073;-74
2021/12/22 07:59:17;;;;;;;87.60;45.42;;;-7.70;98.00;;;;;;5095615;28;20474;-75
2021/12/22 08:01:42;;;;;;;70.68;36.50;;;-7.70;98.00;;;;;;5093617;28;20020;-74
2021/12/22 08:04:08;;;;;;;50.45;25.73;;;-7.70;98.00;;;;;;5092863;28;20107;-74
2021/12/22 08:06:34;;;;;;;54.90;28.67;;;-7.50;98.00;;;;;;5095195;28;20028;-74
2021/12/22 08:08:59;;;;;;;53.40;27.75;;;-7.30;98.00;;;;;;5082969;28;20051;-74
2021/12/22 08:11:25;;;;;;;68.93;33.42;;;-7.30;98.00;;;;;;5083153;28;20024;-73
2021/12/22 08:13:51;;;;;;;59.80;32.92;;;-7.30;98.00;;;;;;5085296;28;20032;-74
2021/12/22 08:16:17;;;;;;;62.20;30.88;;;-7.40;98.00;;;;;;5086061;28;20391;-74
2021/12/22 08:18:42;;;;;;;64.93;33.53;;;-7.40;98.00;;;;;;5083298;28;20016;-74
2021/12/22 08:21:08;;;;;;;53.67;27.65;;;-7.40;98.00;;;;;;5087290;28;20373;-73
2021/12/22 08:23:34;;;;;;;71.88;33.75;;;-7.20;98.00;;;;;;5087728;28;20032;-74
2021/12/22 08:25:59;;;;;;;64.30;30.58;;;-7.10;98.00;;;;;;5094741;28;20024;-74
2021/12/22 08:28:25;;;;;;;51.60;27.17;;;-7.00;98.00;;;;;;5084567;28;20047;-74
2021/12/22 08:30:54;;;;;;;52.20;27.10;;;-6.90;98.00;;;;;;5087841;28;20028;-75
2021/12/22 08:33:25;;;;;;;69.40;35.13;;;-6.60;98.00;;;;;;5083917;28;20028;-75
2021/12/22 08:38:52;;;;;;;58.85;33.45;;;-5.30;94.40;;;;;;5084293;28;20039;-75
2021/12/22 08:41:23;;;;;;;43.60;24.30;;;-4.40;96.10;;;;;;5085081;28;20402;-74
2021/12/22 08:43:50;;;;;;;40.33;23.42;;;-4.00;98.00;;;;;;5087892;28;20036;-75
2021/12/22 08:46:16;;;;;;;34.30;20.20;;;-3.20;98.00;;;;;;5084382;28;20410;-74
2021/12/22 08:48:42;;;;;;;33.13;20.30;;;-2.60;98.00;;;;;;5091468;28;20477;-75
2021/12/22 08:51:08;;;;;;;29.02;17.10;;;-2.00;98.00;;;;;;5084025;28;20391;-75
2021/12/22 08:53:33;;;;;;;32.45;19.58;;;-1.40;98.00;;;;;;5084935;28;20111;-75
2021/12/22 08:55:59;;;;;;;56.67;29.33;;;-0.80;97.70;;;;;;5085898;28;20036;-75
2021/12/22 08:58:25;;;;;;;27.85;17.20;;;-0.50;94.50;;;;;;5085725;28;20028;-75
2021/12/22 09:00:50;;;;;;;26.83;16.10;;;-0.10;94.70;;;;;;5086589;28;20150;-75
2021/12/22 09:03:16;;;;;;;24.67;16.17;;;0.30;94.30;;;;;;5085445;28;20476;-75
2021/12/22 09:05:42;;;;;;;25.73;15.98;;;0.80;92.00;;;;;;5084292;28;20239;-75
2021/12/22 09:08:07;;;;;;;25.45;16.48;;;1.20;90.10;;;;;;5085104;28;20055;-75
2021/12/22 09:10:33;;;;;;;22.70;15.40;;;1.40;90.20;;;;;;5091471;28;20032;-76
2021/12/22 09:12:59;;;;;;;25.33;16.77;;;2.10;91.30;;;;;;5088898;28;20039;-75
2021/12/22 09:15:24;;;;;;;23.08;14.80;;;2.50;87.50;;;;;;5083472;28;20413;-74
2021/12/22 09:17:50;;;;;;;22.77;15.63;;;1.90;83.70;;;;;;5089589;28;20082;-75
2021/12/22 09:20:16;;;;;;;25.85;16.13;;;1.60;83.80;;;;;;5083821;28;20024;-76
2021/12/22 09:22:41;;;;;;;25.95;17.50;;;1.20;83.90;;;;;;5079039;28;20044;-75
2021/12/22 09:25:08;;;;;;;25.27;17.20;;;1.10;85.00;;;;;;5081763;28;20066;-75
2021/12/22 09:27:34;;;;;;;24.90;17.05;;;1.20;85.10;;;;;;5080838;28;20055;-74
2021/12/22 09:30:00;;;;;;;25.33;16.92;;;1.00;85.20;;;;;;5079774;28;20054;-75
2021/12/22 09:32:25;;;;;;;22.02;14.95;;;1.60;89.00;;;;;;5080247;28;20115;-75
2021/12/22 09:34:51;;;;;;;22.80;15.20;;;2.30;85.20;;;;;;5084429;28;20028;-75
2021/12/22 09:37:18;;;;;;;24.83;16.08;;;2.10;83.30;;;;;;5087129;28;20074;-75
2021/12/22 09:39:43;;;;;;;21.80;14.80;;;2.10;84.50;;;;;;5081147;28;20032;-75
2021/12/22 09:42:10;;;;;;;24.95;17.05;;;2.30;83.30;;;;;;5084162;28;20074;-75
2021/12/22 09:44:45;;;;;;;24.65;15.95;;;2.00;81.20;;;;;;5084706;28;20380;-75
2021/12/22 09:47:13;;;;;;;23.88;15.55;;;2.10;82.90;;;;;;5089324;28;20098;-75
2021/12/22 09:52:26;;;;;;;25.63;15.40;;;2.30;81.70;;;;;;5090491;28;20032;-76
2021/12/22 09:54:59;;;;;;;23.58;15.23;;;2.80;82.20;;;;;;5088039;28;20089;-75
2021/12/22 09:57:26;;;;;;;25.88;15.90;;;3.00;81.20;;;;;;5091229;28;20056;-75
2021/12/22 09:59:53;;;;;;;25.92;16.98;;;3.90;81.20;;;;;;5088890;28;20036;-75
2021/12/22 10:02:22;;;;;;;23.48;15.50;;;3.70;78.00;;;;;;5083039;28;20053;-75
2021/12/22 10:04:49;;;;;;;24.60;15.95;;;3.80;78.50;;;;;;5084589;28;20034;-75
2021/12/22 10:07:23;;;;;;;23.52;15.48;;;4.00;78.90;;;;;;5085265;28;20067;-75
2021/12/22 10:09:51;;;;;;;24.00;15.57;;;3.80;78.50;;;;;;5087523;28;20487;-75
2021/12/22 10:12:25;;;;;;;25.98;16.15;;;3.50;76.80;;;;;;5085247;28;20056;-75
2021/12/22 10:14:54;;;;;;;25.27;16.83;;;3.00;77.20;;;;;;5084415;28;20020;-75
2021/12/22 10:17:27;;;;;;;24.05;15.73;;;2.70;78.30;;;;;;5087971;28;20020;-74
2021/12/22 10:19:57;;;;;;;23.88;15.30;;;2.90;79.50;;;;;;5087637;28;20016;-75
2021/12/22 10:22:29;;;;;;;23.48;15.43;;;3.00;78.60;;;;;;5083908;28;20035;-75
2021/12/22 10:25:11;;;;;;;21.92;14.77;;;3.10;78.10;;;;;;5086207;28;20077;-74
2021/12/22 10:27:40;;;;;;;25.48;16.75;;;3.50;78.50;;;;;;5086333;28;20333;-75
2021/12/22 10:30:25;;;;;;;25.45;17.20;;;3.90;77.10;;;;;;5084596;28;20317;-74
2021/12/22 10:33:26;;;;;;;23.65;15.05;;;3.40;76.80;;;;;;5084254;28;20131;-74
2021/12/22 10:35:54;;;;;;;23.38;16.35;;;3.10;78.30;;;;;;5075720;28;20433;-73
2021/12/22 10:38:22;;;;;;;23.33;15.43;;;3.40;78.30;;;;;;5093406;28;20472;-73
2021/12/22 10:40:56;;;;;;;24.08;16.00;;;2.80;77.50;;;;;;5096599;28;20027;-75
2021/12/22 10:43:28;;;;;;;;;;;2.20;78.60;;;;;;5095752;28;20032;-75
2021/12/22 10:46:00;;;;;;;25.73;16.02;;;2.60;79.10;;;;;;5090991;28;19912;-75
2021/12/22 10:51:28;;;;;;;23.88;14.95;;;2.60;79.40;;;;;;5095711;28;20027;-75
2021/12/22 10:53:56;;;;;;;24.83;15.57;;;2.90;79.10;;;;;;5094033;28;20017;-73
2021/12/22 10:56:30;;;;;;;26.70;16.10;;;3.20;77.80;;;;;;5092280;28;20020;-75
2021/12/22 10:59:08;;;;;;;22.45;14.52;;;3.50;77.40;;;;;;5092239;28;20052;-74
2021/12/22 11:01:39;;;;;;;24.33;16.05;;;2.90;77.10;;;;;;5094007;28;20031;-74
2021/12/22 11:04:15;;;;;;;26.45;16.95;;;2.10;79.80;;;;;;5094968;28;20028;-74
2021/12/22 11:06:41;;;;;;;25.80;16.95;;;2.00;80.20;;;;;;5097030;28;20335;-74
2021/12/22 11:09:16;;;;;;;23.67;16.27;;;1.90;81.40;;;;;;5094529;28;20055;-73
2021/12/22 11:11:46;;;;;;;24.30;15.85;;;2.20;80.70;;;;;;5091917;28;20034;-74
2021/12/22 11:14:22;;;;;;;25.75;15.75;;;2.60;80.90;;;;;;5097088;28;20020;-74
2021/12/22 11:16:56;;;;;;;28.75;16.30;;;3.20;78.80;;;;;;5096141;28;20320;-73
2021/12/22 11:19:24;;;;;;;27.17;17.52;;;3.20;78.20;;;;;;5095159;28;20020;-73
2021/12/22 11:22:08;;;;;;;22.25;15.60;;;3.20;78.10;;;;;;5094719;28;20341;-73
2021/12/22 11:24:36;;;;;;;25.48;15.63;;;3.30;77.70;;;;;;5097180;28;20024;-74
2021/12/22 11:27:03;;;;;;;22.65;15.35;;;3.50;77.70;;;;;;5096441;28;20158;-73
2021/12/22 11:29:30;;;;;;;26.20;16.20;;;3.60;77.80;;;;;;5096938;28;20020;-74
2021/12/22 11:31:57;;;;;;;26.40;16.23;;;3.90;77.40;;;;;;5093904;28;20112;-74
2021/12/22 11:34:22;;;;;;;26.88;16.85;;;4.30;75.90;;;;;;5093752;28;20032;-74
2021/12/22 11:36:50;;;;;;;25.80;17.65;;;4.50;74.90;;;;;;5095401;28;20113;-74
2021/12/22 11:39:17;;;;;;;26.88;16.90;;;4.10;75.50;;;;;;5095644;28;20035;-74
2021/12/22 11:41:53;;;;;;;26.25;17.08;;;4.00;75.80;;;;;;5096795;28;20028;-74
2021/12/22 11:44:19;;;;;;;25.27;16.85;;;3.80;76.50;;;;;;5096109;28;20034;-74
2021/12/22 11:46:46;;;;;;;25.90;16.83;;;3.50;78.20;;;;;;5096090;28;20036;-74
2021/12/22 11:49:11;;;;;;;24.23;15.98;;;3.50;77.80;;;;;;5095972;28;20024;-73
2021/12/22 11:51:37;;;;;;;28.73;17.38;;;3.80;77.60;;;;;;5096586;28;20031;-73
2021/12/22 11:54:09;;;;;;;28.27;18.08;;;3.50;77.70;;;;;;5093683;28;20020;-74
2021/12/22 11:56:37;;;;;;;25.40;15.82;;;2.90;78.80;;;;;;5089768;28;20443;-74
2021/12/22 11:59:04;;;;;;;24.17;16.20;;;2.90;79.60;;;;;;5095212;28;20301;-73
2021/12/22 12:01:29;;;;;;;22.55;15.32;;;3.70;78.80;;;;;;5094950;28;20046;-73
2021/12/22 12:04:13;;;;;;;23.55;15.85;;;4.10;77.50;;;;;;5095138;28;20035;-74
2021/12/22 12:06:49;;;;;;;26.42;17.05;;;4.20;75.20;;;;;;5079415;28;20379;-74
2021/12/22 12:09:15;;;;;;;28.17;18.45;;;3.60;76.80;;;;;;5095474;28;20040;-74
2021/12/22 12:11:48;;;;;;;26.33;16.55;;;3.30;77.90;;;;;;5095518;28;20107;-74
2021/12/22 12:23:27;;;;;;;;;;;2.90;80.20;;;;;;5089728;28;20031;-74
2021/12/22 12:26:02;;;;;;;26.33;16.77;;;3.40;79.70;;;;;;5094598;28;19915;-75
2021/12/22 12:28:28;;;;;;;27.13;17.38;;;3.80;77.70;;;;;;5095237;28;20024;-74
2021/12/22 12:30:56;;;;;;;26.70;16.30;;;3.40;78.50;;;;;;5094806;28;20024;-74
2021/12/22 12:33:29;;;;;;;29.42;17.10;;;3.50;78.60;;;;;;5094537;28;20046;-74
2021/12/22 12:36:11;;;;;;;28.80;17.75;;;3.60;78.80;;;;;;5094675;28;20432;-74
2021/12/22 12:38:40;;;;;;;27.63;18.95;;;3.40;78.80;;;;;;5094330;28;20028;-74
2021/12/22 12:41:35;;;;;;;27.85;18.95;;;3.10;78.60;;;;;;5095817;28;20028;-74
2021/12/22 12:44:10;;;;;;;31.52;18.60;;;2.70;79.40;;;;;;5094778;28;20046;-73
2021/12/22 12:46:42;;;;;;;31.00;18.70;;;2.60;81.90;;;;;;5087932;28;20051;-74
2021/12/22 12:49:08;;;;;;;31.15;19.10;;;2.60;81.20;;;;;;5094248;28;20084;-74
2021/12/22 12:51:47;;;;;;;31.02;18.67;;;2.30;81.30;;;;;;5094977;28;20024;-74
2021/12/22 12:54:16;;;;;;;30.38;19.20;;;2.10;81.90;;;;;;5095453;28;20088;-74
2021/12/22 12:56:52;;;;;;;30.02;18.92;;;2.20;82.10;;;;;;5092394;28;20032;-73
2021/12/22 12:59:26;;;;;;;30.23;18.88;;;2.00;81.40;;;;;;5092361;28;20169;-71
2021/12/22 13:01:52;;;;;;;30.00;18.58;;;2.10;81.60;;;;;;5090281;28;20036;-72
2021/12/22 13:04:35;;;;;;;30.42;19.38;;;2.00;82.30;;;;;;5092447;28;20111;-71
2021/12/22 13:07:05;;;;;;;29.80;18.87;;;2.00;83.10;;;;;;5078954;28;20020;-72
2021/12/22 13:09:31;;;;;;;35.25;18.23;;;2.00;83.00;;;;;;5084592;28;20055;-73
2021/12/22 13:12:09;;;;;;;32.78;19.17;;;2.10;82.90;;;;;;5093655;28;20021;-72